sensor_id;sensor_type;location;lat;lon;timestamp;temperature;humidity
7822;DHT22;3956;50.558;9.678;2022-12-10T00:01:53;0.60;1.00
7822;DHT22;3956;50.558;9.678;2022-12-10T00:04:26;0.70;1.00
7822;DHT22;3956;50.558;9.678;2022-12-10T00:06:55;0.60;1.00
7822;DHT22;3956;50.558;9.678;2022-12-10T00:09:24;0.50;1.00
7822;DHT22;3956;50.558;9.678;2022-12-10T00:11:53;0.60;1.00
7822;DHT22;3956;50.558;9.678;2022-12-10T00:14:21;0.60;1.00
7822;DHT22;3956;50.558;9.678;2022-12-10T00:16:51;0.60;1.00
7822;DHT22;3956;50.558;9.678;2022-12-10T00:19:23;0.70;1.00
7822;DHT22;3956;50.558;9.678;2022-12-10T00:21:52;0.70;1.00
7822;DHT22;3956;50.558;9.678;2022-12-10T00:24:20;0.60;1.00
7822;DHT22;3956;50.558;9.678;2022-12-10T00:26:50;0.70;1.00
7822;DHT22;3956;50.558;9.678;2022-12-10T00:29:18;0.60;1.00
7822;DHT22;3956;50.558;9.678;2022-12-10T00:31:47;0.60;1.00
7822;DHT22;3956;50.558;9.678;2022-12-10T00:34:16;0.60;1.00
7822;DHT22;3956;50.558;9.678;2022-12-10T00:36:45;0.70;1.00
7822;DHT22;3956;50.558;9.678;2022-12-10T00:39:16;0.60;1.00
7822;DHT22;3956;50.558;9.678;2022-12-10T00:41:46;0.70;1.00
7822;DHT22;3956;50.558;9.678;2022-12-10T00:44:16;0.60;1.00
7822;DHT22;3956;50.558;9.678;2022-12-10T00:46:44;0.70;1.00
7822;DHT22;3956;50.558;9.678;2022-12-10T00:49:13;0.60;1.00
7822;DHT22;3956;50.558;9.678;2022-12-10T00:51:41;0.60;1.00
7822;DHT22;3956;50.558;9.678;2022-12-10T00:54:10;0.60;1.00
7822;DHT22;3956;50.558;9.678;2022-12-10T00:56:38;0.60;1.00
7822;DHT22;3956;50.558;9.678;2022-12-10T00:59:09;0.60;1.00
7822;DHT22;3956;50.558;9.678;2022-12-10T01:01:40;0.70;1.00
7822;DHT22;3956;50.558;9.678;2022-12-10T01:04:11;0.60;1.00
7822;DHT22;3956;50.558;9.678;2022-12-10T01:06:42;0.60;1.00
7822;DHT22;3956;50.558;9.678;2022-12-10T01:09:13;0.60;1.00
7822;DHT22;3956;50.558;9.678;2022-12-10T01:11:43;0.70;1.00
7822;DHT22;3956;50.558;9.678;2022-12-10T01:14:14;0.60;1.00
7822;DHT22;3956;50.558;9.678;2022-12-10T01:16:46;0.60;1.00
7822;DHT22;3956;50.558;9.678;2022-12-10T01:19:14;0.50;1.00
7822;DHT22;3956;50.558;9.678;2022-12-10T01:21:43;0.50;1.00
7822;DHT22;3956;50.558;9.678;2022-12-10T01:24:11;0.60;1.00
7822;DHT22;3956;50.558;9.678;2022-12-10T01:26:39;0.60;1.00
7822;DHT22;3956;50.558;9.678;2022-12-10T01:29:09;0.60;1.00
7822;DHT22;3956;50.558;9.678;2022-12-10T01:31:39;0.60;1.00
7822;DHT22;3956;50.558;9.678;2022-12-10T01:34:13;0.70;1.00
7822;DHT22;3956;50.558;9.678;2022-12-10T01:36:43;0.70;1.00
7822;DHT22;3956;50.558;9.678;2022-12-10T01:39:14;0.80;1.00
7822;DHT22;3956;50.558;9.678;2022-12-10T01:41:46;0.70;1.00
7822;DHT22;3956;50.558;9.678;2022-12-10T01:47:21;0.70;1.00
7822;DHT22;3956;50.558;9.678;2022-12-10T01:49:51;0.70;1.00
7822;DHT22;3956;50.558;9.678;2022-12-10T01:52:19;0.60;1.00
7822;DHT22;3956;50.558;9.678;2022-12-10T01:54:48;0.70;1.10
7822;DHT22;3956;50.558;9.678;2022-12-10T01:57:18;0.70;1.00
7822;DHT22;3956;50.558;9.678;2022-12-10T01:59:49;0.70;1.00
7822;DHT22;3956;50.558;9.678;2022-12-10T02:02:26;0.60;1.00
7822;DHT22;3956;50.558;9.678;2022-12-10T02:05:13;0.70;1.00
7822;DHT22;3956;50.558;9.678;2022-12-10T02:07:52;0.70;1.00
7822;DHT22;3956;50.558;9.678;2022-12-10T02:10:28;0.70;1.00
7822;DHT22;3956;50.558;9.678;2022-12-10T02:13:06;0.80;1.00
7822;DHT22;3956;50.558;9.678;2022-12-10T02:15:40;0.80;1.00
7822;DHT22;3956;50.558;9.678;2022-12-10T02:18:13;0.80;1.00
7822;DHT22;3956;50.558;9.678;2022-12-10T02:20:47;0.80;1.00
7822;DHT22;3956;50.558;9.678;2022-12-10T02:23:20;0.80;1.00
7822;DHT22;3956;50.558;9.678;2022-12-10T02:25:54;0.80;1.00
7822;DHT22;3956;50.558;9.678;2022-12-10T02:28:31;0.80;1.00
7822;DHT22;3956;50.558;9.678;2022-12-10T02:31:04;0.80;1.00
7822;DHT22;3956;50.558;9.678;2022-12-10T02:33:35;0.70;1.00
7822;DHT22;3956;50.558;9.678;2022-12-10T02:36:05;0.70;1.00
7822;DHT22;3956;50.558;9.678;2022-12-10T02:38:36;0.70;1.00
7822;DHT22;3956;50.558;9.678;2022-12-10T02:41:09;0.50;1.00
7822;DHT22;3956;50.558;9.678;2022-12-10T02:43:43;0.60;1.00
7822;DHT22;3956;50.558;9.678;2022-12-10T02:46:13;0.70;1.00
7822;DHT22;3956;50.558;9.678;2022-12-10T02:48:42;0.70;1.00
7822;DHT22;3956;50.558;9.678;2022-12-10T02:51:11;0.70;1.00
7822;DHT22;3956;50.558;9.678;2022-12-10T02:53:41;0.70;1.00
7822;DHT22;3956;50.558;9.678;2022-12-10T02:56:17;0.70;1.00
7822;DHT22;3956;50.558;9.678;2022-12-10T02:58:59;0.70;1.00
7822;DHT22;3956;50.558;9.678;2022-12-10T03:01:40;0.70;1.00
7822;DHT22;3956;50.558;9.678;2022-12-10T03:04:13;0.70;1.00
7822;DHT22;3956;50.558;9.678;2022-12-10T03:06:47;0.70;1.00
7822;DHT22;3956;50.558;9.678;2022-12-10T03:09:22;0.70;1.00
7822;DHT22;3956;50.558;9.678;2022-12-10T03:11:56;0.60;1.00
7822;DHT22;3956;50.558;9.678;2022-12-10T03:14:29;0.70;1.00
7822;DHT22;3956;50.558;9.678;2022-12-10T03:17:00;0.60;1.00
7822;DHT22;3956;50.558;9.678;2022-12-10T03:19:33;0.60;3.40
7822;DHT22;3956;50.558;9.678;2022-12-10T03:22:05;0.70;7.20
7822;DHT22;3956;50.558;9.678;2022-12-10T03:24:36;0.70;5.70
7822;DHT22;3956;50.558;9.678;2022-12-10T03:27:06;0.70;1.40
7822;DHT22;3956;50.558;9.678;2022-12-10T03:29:39;0.70;5.80
7822;DHT22;3956;50.558;9.678;2022-12-10T03:32:10;0.70;6.20
7822;DHT22;3956;50.558;9.678;2022-12-10T03:34:39;0.70;3.00
7822;DHT22;3956;50.558;9.678;2022-12-10T03:37:08;0.70;3.30
7822;DHT22;3956;50.558;9.678;2022-12-10T03:39:37;0.70;1.00
7822;DHT22;3956;50.558;9.678;2022-12-10T03:42:06;0.70;1.00
7822;DHT22;3956;50.558;9.678;2022-12-10T03:44:36;0.70;1.00
7822;DHT22;3956;50.558;9.678;2022-12-10T03:47:06;0.70;1.00
7822;DHT22;3956;50.558;9.678;2022-12-10T03:49:36;0.70;1.00
7822;DHT22;3956;50.558;9.678;2022-12-10T03:52:05;0.60;1.00
7822;DHT22;3956;50.558;9.678;2022-12-10T03:54:33;0.70;1.00
7822;DHT22;3956;50.558;9.678;2022-12-10T03:57:01;0.70;1.00
7822;DHT22;3956;50.558;9.678;2022-12-10T03:59:30;0.70;2.30
7822;DHT22;3956;50.558;9.678;2022-12-10T04:01:58;0.60;4.30
7822;DHT22;3956;50.558;9.678;2022-12-10T04:04:26;0.60;13.70
7822;DHT22;3956;50.558;9.678;2022-12-10T04:06:56;0.60;15.60
7822;DHT22;3956;50.558;9.678;2022-12-10T04:09:24;0.60;15.40
7822;DHT22;3956;50.558;9.678;2022-12-10T04:11:55;0.60;7.60
7822;DHT22;3956;50.558;9.678;2022-12-10T04:14:25;0.60;5.70
7822;DHT22;3956;50.558;9.678;2022-12-10T04:17:11;0.60;10.50
7822;DHT22;3956;50.558;9.678;2022-12-10T04:19:39;0.60;2.60
7822;DHT22;3956;50.558;9.678;2022-12-10T04:22:11;0.70;5.10
7822;DHT22;3956;50.558;9.678;2022-12-10T04:24:56;0.70;1.00
7822;DHT22;3956;50.558;9.678;2022-12-10T04:27:47;0.70;1.20
7822;DHT22;3956;50.558;9.678;2022-12-10T04:30:16;0.70;1.00
7822;DHT22;3956;50.558;9.678;2022-12-10T04:32:44;0.70;1.30
7822;DHT22;3956;50.558;9.678;2022-12-10T04:35:13;0.60;1.00
7822;DHT22;3956;50.558;9.678;2022-12-10T04:37:43;0.70;5.20
7822;DHT22;3956;50.558;9.678;2022-12-10T04:40:11;0.80;3.20
7822;DHT22;3956;50.558;9.678;2022-12-10T04:42:39;0.70;6.70
7822;DHT22;3956;50.558;9.678;2022-12-10T04:45:09;0.60;9.00
7822;DHT22;3956;50.558;9.678;2022-12-10T04:47:37;0.70;12.30
7822;DHT22;3956;50.558;9.678;2022-12-10T04:50:06;0.60;14.50
7822;DHT22;3956;50.558;9.678;2022-12-10T04:52:35;0.60;12.40
7822;DHT22;3956;50.558;9.678;2022-12-10T04:55:05;0.60;7.70
7822;DHT22;3956;50.558;9.678;2022-12-10T04:57:33;0.70;8.90
7822;DHT22;3956;50.558;9.678;2022-12-10T05:00:02;0.70;3.30
7822;DHT22;3956;50.558;9.678;2022-12-10T05:02:31;0.70;1.00
7822;DHT22;3956;50.558;9.678;2022-12-10T05:04:59;0.60;6.00
7822;DHT22;3956;50.558;9.678;2022-12-10T05:07:28;0.70;4.50
7822;DHT22;3956;50.558;9.678;2022-12-10T05:09:56;0.70;5.30
7822;DHT22;3956;50.558;9.678;2022-12-10T05:12:26;0.70;10.10
7822;DHT22;3956;50.558;9.678;2022-12-10T05:14:55;0.70;5.20
7822;DHT22;3956;50.558;9.678;2022-12-10T05:17:23;0.70;13.50
7822;DHT22;3956;50.558;9.678;2022-12-10T05:19:51;0.70;10.20
7822;DHT22;3956;50.558;9.678;2022-12-10T05:22:20;0.70;12.30
7822;DHT22;3956;50.558;9.678;2022-12-10T05:25:06;0.70;4.20
7822;DHT22;3956;50.558;9.678;2022-12-10T05:27:36;0.70;1.80
7822;DHT22;3956;50.558;9.678;2022-12-10T05:30:06;0.70;2.40
7822;DHT22;3956;50.558;9.678;2022-12-10T05:32:35;0.70;1.00
7822;DHT22;3956;50.558;9.678;2022-12-10T05:35:04;0.80;1.00
7822;DHT22;3956;50.558;9.678;2022-12-10T05:37:33;0.80;1.00
7822;DHT22;3956;50.558;9.678;2022-12-10T05:40:01;0.80;1.00
7822;DHT22;3956;50.558;9.678;2022-12-10T05:42:30;0.80;1.00
7822;DHT22;3956;50.558;9.678;2022-12-10T05:44:59;0.80;1.00
7822;DHT22;3956;50.558;9.678;2022-12-10T05:47:28;0.80;1.00
7822;DHT22;3956;50.558;9.678;2022-12-10T05:49:56;0.70;1.00
7822;DHT22;3956;50.558;9.678;2022-12-10T05:52:24;0.80;1.00
7822;DHT22;3956;50.558;9.678;2022-12-10T05:54:53;0.80;1.00
7822;DHT22;3956;50.558;9.678;2022-12-10T05:57:21;0.80;1.00
7822;DHT22;3956;50.558;9.678;2022-12-10T05:59:49;0.80;1.00
7822;DHT22;3956;50.558;9.678;2022-12-10T06:02:19;0.80;1.00
7822;DHT22;3956;50.558;9.678;2022-12-10T06:04:47;0.80;1.00
7822;DHT22;3956;50.558;9.678;2022-12-10T06:07:17;0.80;1.00
7822;DHT22;3956;50.558;9.678;2022-12-10T06:09:45;0.90;1.00
7822;DHT22;3956;50.558;9.678;2022-12-10T06:12:13;0.80;1.00
7822;DHT22;3956;50.558;9.678;2022-12-10T06:14:42;0.80;1.00
7822;DHT22;3956;50.558;9.678;2022-12-10T06:17:10;0.80;1.00
7822;DHT22;3956;50.558;9.678;2022-12-10T06:19:40;0.80;1.00
7822;DHT22;3956;50.558;9.678;2022-12-10T06:22:08;0.80;1.00
7822;DHT22;3956;50.558;9.678;2022-12-10T06:24:36;0.70;1.00
7822;DHT22;3956;50.558;9.678;2022-12-10T06:27:05;0.70;1.00
7822;DHT22;3956;50.558;9.678;2022-12-10T06:29:33;0.70;1.00
7822;DHT22;3956;50.558;9.678;2022-12-10T06:32:02;0.70;1.00
7822;DHT22;3956;50.558;9.678;2022-12-10T06:34:30;0.70;1.00
7822;DHT22;3956;50.558;9.678;2022-12-10T06:37:00;0.70;1.00
7822;DHT22;3956;50.558;9.678;2022-12-10T06:39:28;0.70;1.00
7822;DHT22;3956;50.558;9.678;2022-12-10T06:41:57;0.70;1.00
7822;DHT22;3956;50.558;9.678;2022-12-10T06:44:26;0.70;1.00
7822;DHT22;3956;50.558;9.678;2022-12-10T06:46:54;0.70;1.00
7822;DHT22;3956;50.558;9.678;2022-12-10T06:49:23;0.70;1.00
7822;DHT22;3956;50.558;9.678;2022-12-10T06:51:51;0.70;1.00
7822;DHT22;3956;50.558;9.678;2022-12-10T06:54:21;0.70;1.00
7822;DHT22;3956;50.558;9.678;2022-12-10T06:56:50;0.70;1.00
7822;DHT22;3956;50.558;9.678;2022-12-10T06:59:18;0.70;1.00
7822;DHT22;3956;50.558;9.678;2022-12-10T07:01:47;0.70;1.00
7822;DHT22;3956;50.558;9.678;2022-12-10T07:04:16;0.70;1.00
7822;DHT22;3956;50.558;9.678;2022-12-10T07:06:45;0.60;1.00
7822;DHT22;3956;50.558;9.678;2022-12-10T07:09:14;0.60;1.00
7822;DHT22;3956;50.558;9.678;2022-12-10T07:11:44;0.60;1.00
7822;DHT22;3956;50.558;9.678;2022-12-10T07:14:15;0.60;1.00
7822;DHT22;3956;50.558;9.678;2022-12-10T07:16:44;0.70;1.00
7822;DHT22;3956;50.558;9.678;2022-12-10T07:19:12;0.60;1.00
7822;DHT22;3956;50.558;9.678;2022-12-10T07:21:42;0.60;1.00
7822;DHT22;3956;50.558;9.678;2022-12-10T07:24:12;0.60;1.00
7822;DHT22;3956;50.558;9.678;2022-12-10T07:26:44;0.60;1.00
7822;DHT22;3956;50.558;9.678;2022-12-10T07:29:15;0.60;1.00
7822;DHT22;3956;50.558;9.678;2022-12-10T07:31:44;0.60;1.00
7822;DHT22;3956;50.558;9.678;2022-12-10T07:34:13;0.60;1.00
7822;DHT22;3956;50.558;9.678;2022-12-10T07:36:41;0.60;1.00
7822;DHT22;3956;50.558;9.678;2022-12-10T07:39:10;0.60;1.00
7822;DHT22;3956;50.558;9.678;2022-12-10T07:41:47;0.60;1.00
7822;DHT22;3956;50.558;9.678;2022-12-10T07:44:17;0.70;1.00
7822;DHT22;3956;50.558;9.678;2022-12-10T07:46:47;0.60;1.00
7822;DHT22;3956;50.558;9.678;2022-12-10T07:49:16;0.60;1.00
7822;DHT22;3956;50.558;9.678;2022-12-10T07:51:45;0.60;1.00
7822;DHT22;3956;50.558;9.678;2022-12-10T07:54:14;0.60;1.00
7822;DHT22;3956;50.558;9.678;2022-12-10T07:56:44;0.60;1.00
7822;DHT22;3956;50.558;9.678;2022-12-10T07:59:13;0.60;1.00
7822;DHT22;3956;50.558;9.678;2022-12-10T08:01:41;0.50;1.00
7822;DHT22;3956;50.558;9.678;2022-12-10T08:04:10;0.60;1.00
7822;DHT22;3956;50.558;9.678;2022-12-10T08:06:38;0.50;1.00
7822;DHT22;3956;50.558;9.678;2022-12-10T08:09:07;0.50;1.00
7822;DHT22;3956;50.558;9.678;2022-12-10T08:11:35;0.60;1.00
7822;DHT22;3956;50.558;9.678;2022-12-10T08:14:05;0.60;1.00
7822;DHT22;3956;50.558;9.678;2022-12-10T08:16:34;0.60;1.00
7822;DHT22;3956;50.558;9.678;2022-12-10T08:19:02;0.60;1.00
7822;DHT22;3956;50.558;9.678;2022-12-10T08:21:31;0.60;1.00
7822;DHT22;3956;50.558;9.678;2022-12-10T08:24:01;0.50;1.00
7822;DHT22;3956;50.558;9.678;2022-12-10T08:26:31;0.60;1.00
7822;DHT22;3956;50.558;9.678;2022-12-10T08:29:01;0.60;1.00
7822;DHT22;3956;50.558;9.678;2022-12-10T08:31:30;0.50;1.00
7822;DHT22;3956;50.558;9.678;2022-12-10T08:34:04;0.50;1.00
7822;DHT22;3956;50.558;9.678;2022-12-10T08:36:33;0.50;1.00
7822;DHT22;3956;50.558;9.678;2022-12-10T08:39:01;0.50;1.00
7822;DHT22;3956;50.558;9.678;2022-12-10T08:41:30;0.50;1.00
7822;DHT22;3956;50.558;9.678;2022-12-10T08:43:58;0.60;1.00
7822;DHT22;3956;50.558;9.678;2022-12-10T08:46:27;0.60;1.00
7822;DHT22;3956;50.558;9.678;2022-12-10T08:48:56;0.60;1.00
7822;DHT22;3956;50.558;9.678;2022-12-10T08:51:26;0.60;1.00
7822;DHT22;3956;50.558;9.678;2022-12-10T08:53:55;0.70;1.00
7822;DHT22;3956;50.558;9.678;2022-12-10T08:56:24;0.60;1.00
7822;DHT22;3956;50.558;9.678;2022-12-10T08:58:52;0.60;1.00
7822;DHT22;3956;50.558;9.678;2022-12-10T09:01:20;0.70;1.00
7822;DHT22;3956;50.558;9.678;2022-12-10T09:03:49;0.70;1.00
7822;DHT22;3956;50.558;9.678;2022-12-10T09:06:21;0.90;1.00
7822;DHT22;3956;50.558;9.678;2022-12-10T09:08:51;0.90;1.00
7822;DHT22;3956;50.558;9.678;2022-12-10T09:11:23;1.00;1.00
7822;DHT22;3956;50.558;9.678;2022-12-10T09:13:53;1.00;1.00
7822;DHT22;3956;50.558;9.678;2022-12-10T09:16:27;1.10;1.00
7822;DHT22;3956;50.558;9.678;2022-12-10T09:18:56;1.10;1.00
7822;DHT22;3956;50.558;9.678;2022-12-10T09:21:26;1.20;1.00
7822;DHT22;3956;50.558;9.678;2022-12-10T09:23:54;1.20;1.00
7822;DHT22;3956;50.558;9.678;2022-12-10T09:26:23;1.20;1.00
7822;DHT22;3956;50.558;9.678;2022-12-10T09:28:51;1.20;1.00
7822;DHT22;3956;50.558;9.678;2022-12-10T09:31:21;1.20;1.00
7822;DHT22;3956;50.558;9.678;2022-12-10T09:33:52;1.20;99.90
7822;DHT22;3956;50.558;9.678;2022-12-10T09:36:21;1.30;1.00
7822;DHT22;3956;50.558;9.678;2022-12-10T09:39:02;1.30;1.00
7822;DHT22;3956;50.558;9.678;2022-12-10T09:42:07;1.40;1.00
7822;DHT22;3956;50.558;9.678;2022-12-10T09:44:50;1.40;1.00
7822;DHT22;3956;50.558;9.678;2022-12-10T09:47:29;1.40;1.00
7822;DHT22;3956;50.558;9.678;2022-12-10T09:50:17;1.40;1.00
7822;DHT22;3956;50.558;9.678;2022-12-10T09:52:59;1.40;1.00
7822;DHT22;3956;50.558;9.678;2022-12-10T09:55:37;1.40;1.00
7822;DHT22;3956;50.558;9.678;2022-12-10T09:58:15;1.30;1.00
7822;DHT22;3956;50.558;9.678;2022-12-10T10:00:58;1.40;1.00
7822;DHT22;3956;50.558;9.678;2022-12-10T10:03:35;1.30;1.00
7822;DHT22;3956;50.558;9.678;2022-12-10T10:06:09;1.20;1.00
7822;DHT22;3956;50.558;9.678;2022-12-10T10:08:44;1.30;1.00
7822;DHT22;3956;50.558;9.678;2022-12-10T10:11:20;1.20;1.00
7822;DHT22;3956;50.558;9.678;2022-12-10T10:13:52;1.20;1.00
7822;DHT22;3956;50.558;9.678;2022-12-10T10:16:24;1.20;1.00
7822;DHT22;3956;50.558;9.678;2022-12-10T10:19:01;1.20;1.00
7822;DHT22;3956;50.558;9.678;2022-12-10T10:21:34;1.20;1.00
7822;DHT22;3956;50.558;9.678;2022-12-10T10:24:05;1.10;1.00
7822;DHT22;3956;50.558;9.678;2022-12-10T10:26:40;1.10;1.00
7822;DHT22;3956;50.558;9.678;2022-12-10T10:29:12;1.20;1.00
7822;DHT22;3956;50.558;9.678;2022-12-10T10:31:57;1.10;1.00
7822;DHT22;3956;50.558;9.678;2022-12-10T10:34:43;1.10;1.00
7822;DHT22;3956;50.558;9.678;2022-12-10T10:37:20;1.10;1.00
7822;DHT22;3956;50.558;9.678;2022-12-10T10:39:51;1.00;1.00
7822;DHT22;3956;50.558;9.678;2022-12-10T10:42:36;1.00;1.00
7822;DHT22;3956;50.558;9.678;2022-12-10T10:45:34;1.10;1.00
7822;DHT22;3956;50.558;9.678;2022-12-10T10:48:13;1.20;1.00
7822;DHT22;3956;50.558;9.678;2022-12-10T10:50:46;1.20;1.00
7822;DHT22;3956;50.558;9.678;2022-12-10T10:53:26;1.30;1.00
7822;DHT22;3956;50.558;9.678;2022-12-10T10:55:58;1.30;1.00
7822;DHT22;3956;50.558;9.678;2022-12-10T10:58:29;1.30;1.00
7822;DHT22;3956;50.558;9.678;2022-12-10T11:01:00;1.30;1.00
7822;DHT22;3956;50.558;9.678;2022-12-10T11:03:32;1.40;1.00
7822;DHT22;3956;50.558;9.678;2022-12-10T11:06:02;1.50;1.00
7822;DHT22;3956;50.558;9.678;2022-12-10T11:08:38;1.60;1.00
7822;DHT22;3956;50.558;9.678;2022-12-10T11:11:12;1.50;1.00
7822;DHT22;3956;50.558;9.678;2022-12-10T11:13:42;1.40;1.00
7822;DHT22;3956;50.558;9.678;2022-12-10T11:16:17;1.40;1.00
7822;DHT22;3956;50.558;9.678;2022-12-10T11:18:55;1.30;1.00
7822;DHT22;3956;50.558;9.678;2022-12-10T11:21:30;1.20;1.00
7822;DHT22;3956;50.558;9.678;2022-12-10T11:24:04;1.20;1.00
7822;DHT22;3956;50.558;9.678;2022-12-10T11:26:52;1.20;1.00
7822;DHT22;3956;50.558;9.678;2022-12-10T11:29:38;1.00;1.00
7822;DHT22;3956;50.558;9.678;2022-12-10T11:32:20;1.00;1.00
7822;DHT22;3956;50.558;9.678;2022-12-10T11:35:01;1.10;1.00
7822;DHT22;3956;50.558;9.678;2022-12-10T11:37:36;1.20;1.00
7822;DHT22;3956;50.558;9.678;2022-12-10T11:40:24;1.20;1.00
7822;DHT22;3956;50.558;9.678;2022-12-10T11:43:09;1.30;1.00
7822;DHT22;3956;50.558;9.678;2022-12-10T11:46:00;1.50;1.00
7822;DHT22;3956;50.558;9.678;2022-12-10T11:49:00;1.80;1.00
7822;DHT22;3956;50.558;9.678;2022-12-10T11:51:40;1.90;1.00
7822;DHT22;3956;50.558;9.678;2022-12-10T11:54:37;2.30;1.00
7822;DHT22;3956;50.558;9.678;2022-12-10T11:57:13;2.00;1.00
7822;DHT22;3956;50.558;9.678;2022-12-10T11:59:48;2.00;1.00
7822;DHT22;3956;50.558;9.678;2022-12-10T12:03:00;2.00;1.00
7822;DHT22;3956;50.558;9.678;2022-12-10T12:06:00;1.90;1.00
7822;DHT22;3956;50.558;9.678;2022-12-10T12:08:43;1.70;1.00
7822;DHT22;3956;50.558;9.678;2022-12-10T12:11:22;1.60;1.00
7822;DHT22;3956;50.558;9.678;2022-12-10T12:14:00;1.50;1.00
7822;DHT22;3956;50.558;9.678;2022-12-10T12:16:37;1.50;1.00
7822;DHT22;3956;50.558;9.678;2022-12-10T12:19:14;1.40;1.00
7822;DHT22;3956;50.558;9.678;2022-12-10T12:21:44;1.50;1.00
7822;DHT22;3956;50.558;9.678;2022-12-10T12:24:17;1.50;1.00
7822;DHT22;3956;50.558;9.678;2022-12-10T12:26:53;1.60;1.00
7822;DHT22;3956;50.558;9.678;2022-12-10T12:29:28;1.60;1.00
7822;DHT22;3956;50.558;9.678;2022-12-10T12:32:09;1.50;1.00
7822;DHT22;3956;50.558;9.678;2022-12-10T12:34:46;1.50;1.00
7822;DHT22;3956;50.558;9.678;2022-12-10T12:37:34;1.50;1.00
7822;DHT22;3956;50.558;9.678;2022-12-10T12:40:11;1.50;1.00
7822;DHT22;3956;50.558;9.678;2022-12-10T12:42:46;1.60;1.00
7822;DHT22;3956;50.558;9.678;2022-12-10T12:45:20;1.50;1.00
7822;DHT22;3956;50.558;9.678;2022-12-10T12:47:56;1.50;1.00
7822;DHT22;3956;50.558;9.678;2022-12-10T12:50:43;1.50;1.00
7822;DHT22;3956;50.558;9.678;2022-12-10T12:53:13;1.60;1.00
7822;DHT22;3956;50.558;9.678;2022-12-10T12:55:53;1.50;1.00
7822;DHT22;3956;50.558;9.678;2022-12-10T12:58:34;1.50;1.00
7822;DHT22;3956;50.558;9.678;2022-12-10T13:01:12;1.50;1.00
7822;DHT22;3956;50.558;9.678;2022-12-10T13:03:44;1.60;1.00
7822;DHT22;3956;50.558;9.678;2022-12-10T13:06:16;1.60;1.00
7822;DHT22;3956;50.558;9.678;2022-12-10T13:08:47;1.60;1.00
7822;DHT22;3956;50.558;9.678;2022-12-10T13:11:28;1.50;1.00
7822;DHT22;3956;50.558;9.678;2022-12-10T13:14:31;1.50;1.00
7822;DHT22;3956;50.558;9.678;2022-12-10T13:17:24;1.40;1.00
7822;DHT22;3956;50.558;9.678;2022-12-10T13:20:04;1.40;1.00
7822;DHT22;3956;50.558;9.678;2022-12-10T13:22:56;1.40;1.00
7822;DHT22;3956;50.558;9.678;2022-12-10T13:25:56;1.30;1.00
7822;DHT22;3956;50.558;9.678;2022-12-10T13:28:31;1.50;1.00
7822;DHT22;3956;50.558;9.678;2022-12-10T13:31:09;1.30;1.00
7822;DHT22;3956;50.558;9.678;2022-12-10T13:33:52;1.20;1.00
7822;DHT22;3956;50.558;9.678;2022-12-10T13:36:24;1.10;1.00
7822;DHT22;3956;50.558;9.678;2022-12-10T13:39:13;1.10;1.00
7822;DHT22;3956;50.558;9.678;2022-12-10T13:45:26;1.20;1.00
7822;DHT22;3956;50.558;9.678;2022-12-10T13:48:16;1.30;1.00
7822;DHT22;3956;50.558;9.678;2022-12-10T13:50:48;1.00;1.00
7822;DHT22;3956;50.558;9.678;2022-12-10T13:53:26;1.00;1.00
7822;DHT22;3956;50.558;9.678;2022-12-10T13:56:08;1.00;1.00
7822;DHT22;3956;50.558;9.678;2022-12-10T13:58:46;1.10;1.00
7822;DHT22;3956;50.558;9.678;2022-12-10T14:01:25;1.20;1.00
7822;DHT22;3956;50.558;9.678;2022-12-10T14:06:57;1.10;1.00
7822;DHT22;3956;50.558;9.678;2022-12-10T14:09:29;1.20;1.00
7822;DHT22;3956;50.558;9.678;2022-12-10T14:12:07;1.20;1.00
7822;DHT22;3956;50.558;9.678;2022-12-10T14:14:40;1.10;1.00
7822;DHT22;3956;50.558;9.678;2022-12-10T14:17:13;1.20;1.00
7822;DHT22;3956;50.558;9.678;2022-12-10T14:19:45;1.20;1.00
7822;DHT22;3956;50.558;9.678;2022-12-10T14:22:18;1.20;1.00
7822;DHT22;3956;50.558;9.678;2022-12-10T14:24:50;1.10;1.00
7822;DHT22;3956;50.558;9.678;2022-12-10T14:27:24;1.10;1.00
7822;DHT22;3956;50.558;9.678;2022-12-10T14:29:57;1.10;1.00
7822;DHT22;3956;50.558;9.678;2022-12-10T14:32:30;1.10;1.00
7822;DHT22;3956;50.558;9.678;2022-12-10T14:34:59;1.10;1.00
7822;DHT22;3956;50.558;9.678;2022-12-10T14:37:31;1.20;1.00
7822;DHT22;3956;50.558;9.678;2022-12-10T14:40:04;1.10;1.00
7822;DHT22;3956;50.558;9.678;2022-12-10T14:42:38;1.10;1.00
7822;DHT22;3956;50.558;9.678;2022-12-10T14:45:11;1.10;1.00
7822;DHT22;3956;50.558;9.678;2022-12-10T14:47:41;1.10;1.00
7822;DHT22;3956;50.558;9.678;2022-12-10T14:50:16;1.10;1.00
7822;DHT22;3956;50.558;9.678;2022-12-10T14:52:50;1.10;1.00
7822;DHT22;3956;50.558;9.678;2022-12-10T14:55:22;1.10;1.00
7822;DHT22;3956;50.558;9.678;2022-12-10T14:57:55;1.10;1.00
7822;DHT22;3956;50.558;9.678;2022-12-10T15:00:25;1.00;1.00
7822;DHT22;3956;50.558;9.678;2022-12-10T15:02:55;1.00;1.00
7822;DHT22;3956;50.558;9.678;2022-12-10T15:05:26;1.10;1.00
7822;DHT22;3956;50.558;9.678;2022-12-10T15:07:57;1.00;1.00
7822;DHT22;3956;50.558;9.678;2022-12-10T15:10:29;1.00;1.00
7822;DHT22;3956;50.558;9.678;2022-12-10T15:13:02;1.10;1.00
7822;DHT22;3956;50.558;9.678;2022-12-10T15:15:36;1.00;1.00
7822;DHT22;3956;50.558;9.678;2022-12-10T15:18:12;0.90;1.00
7822;DHT22;3956;50.558;9.678;2022-12-10T15:20:46;0.90;1.00
7822;DHT22;3956;50.558;9.678;2022-12-10T15:23:19;0.90;1.00
7822;DHT22;3956;50.558;9.678;2022-12-10T15:25:52;0.80;1.00
7822;DHT22;3956;50.558;9.678;2022-12-10T15:28:29;0.80;1.00
7822;DHT22;3956;50.558;9.678;2022-12-10T15:31:09;0.70;1.00
7822;DHT22;3956;50.558;9.678;2022-12-10T15:33:43;0.70;1.00
7822;DHT22;3956;50.558;9.678;2022-12-10T15:36:28;0.60;1.00
7822;DHT22;3956;50.558;9.678;2022-12-10T15:39:03;0.70;1.00
7822;DHT22;3956;50.558;9.678;2022-12-10T15:41:43;0.60;1.00
7822;DHT22;3956;50.558;9.678;2022-12-10T15:44:23;0.60;1.00
7822;DHT22;3956;50.558;9.678;2022-12-10T15:46:59;0.50;1.00
7822;DHT22;3956;50.558;9.678;2022-12-10T15:49:28;0.60;1.00
7822;DHT22;3956;50.558;9.678;2022-12-10T15:51:57;0.50;1.00
7822;DHT22;3956;50.558;9.678;2022-12-10T15:54:30;0.50;1.00
7822;DHT22;3956;50.558;9.678;2022-12-10T15:57:09;0.50;1.00
7822;DHT22;3956;50.558;9.678;2022-12-10T15:59:40;0.40;1.00
7822;DHT22;3956;50.558;9.678;2022-12-10T16:02:22;0.40;1.00
7822;DHT22;3956;50.558;9.678;2022-12-10T16:04:52;0.40;1.00
7822;DHT22;3956;50.558;9.678;2022-12-10T16:07:20;0.40;1.00
7822;DHT22;3956;50.558;9.678;2022-12-10T16:09:49;0.40;1.00
7822;DHT22;3956;50.558;9.678;2022-12-10T16:12:17;0.40;1.00
7822;DHT22;3956;50.558;9.678;2022-12-10T16:14:50;0.40;1.00
7822;DHT22;3956;50.558;9.678;2022-12-10T16:17:23;0.40;1.00
7822;DHT22;3956;50.558;9.678;2022-12-10T16:19:51;0.30;1.00
7822;DHT22;3956;50.558;9.678;2022-12-10T16:22:21;0.30;1.00
7822;DHT22;3956;50.558;9.678;2022-12-10T16:24:49;0.30;1.00
7822;DHT22;3956;50.558;9.678;2022-12-10T16:27:18;0.20;1.00
7822;DHT22;3956;50.558;9.678;2022-12-10T16:29:48;0.20;1.00
7822;DHT22;3956;50.558;9.678;2022-12-10T16:32:16;0.20;1.00
7822;DHT22;3956;50.558;9.678;2022-12-10T16:34:45;0.20;1.00
7822;DHT22;3956;50.558;9.678;2022-12-10T16:37:14;0.20;1.00
7822;DHT22;3956;50.558;9.678;2022-12-10T16:39:43;0.20;1.00
7822;DHT22;3956;50.558;9.678;2022-12-10T16:42:19;0.30;1.00
7822;DHT22;3956;50.558;9.678;2022-12-10T16:44:49;0.30;1.00
7822;DHT22;3956;50.558;9.678;2022-12-10T16:47:17;0.30;1.00
7822;DHT22;3956;50.558;9.678;2022-12-10T16:49:46;0.20;1.00
7822;DHT22;3956;50.558;9.678;2022-12-10T16:52:14;0.30;1.00
7822;DHT22;3956;50.558;9.678;2022-12-10T16:54:43;0.20;1.00
7822;DHT22;3956;50.558;9.678;2022-12-10T16:57:13;0.20;1.00
7822;DHT22;3956;50.558;9.678;2022-12-10T16:59:42;0.20;1.00
7822;DHT22;3956;50.558;9.678;2022-12-10T17:02:14;0.10;1.00
7822;DHT22;3956;50.558;9.678;2022-12-10T17:04:44;0.20;1.00
7822;DHT22;3956;50.558;9.678;2022-12-10T17:07:14;0.10;1.00
7822;DHT22;3956;50.558;9.678;2022-12-10T17:09:42;0.10;1.00
7822;DHT22;3956;50.558;9.678;2022-12-10T17:12:11;0.10;1.00
7822;DHT22;3956;50.558;9.678;2022-12-10T17:14:41;0.20;1.00
7822;DHT22;3956;50.558;9.678;2022-12-10T17:17:14;0.10;1.00
7822;DHT22;3956;50.558;9.678;2022-12-10T17:19:43;0.10;1.00
7822;DHT22;3956;50.558;9.678;2022-12-10T17:22:12;0.10;1.00